Latest Weather Observations for Gold Coast Seaway

IDQ60901

Issued at 12:31 pm EST Thursday 23 January 2020 (issued every 10 minutes, with the page automatically refreshed every 10 minutes)

About weather observations | Map of Brisbane area stations | Latest observations for Brisbane area | Other Formats
Station Details ID: 040764 Name: GOLD COAST SEAWAY Lat: -27.94 Lon: 153.43 Height: 2.98 m
Data from the previous 72 hours. | See also: Recent months at Gold Coast Seaway
Date/Time
EST
Temp
°C
App
Temp
°C
Dew
Point
°C
Rel
Hum
%
Delta-T
°C
Wind Press
QNH
hPa
Press
MSL
hPa
Rain since
9am
mm
Dir  Spd
km/h
Gust
km/h
Spd
kts
Gust
kts
23/12:30pm 26.5 25.2 21.3 73 3.5 NNE 30 35 16 19 1011.7 1011.7 0.0
23/12:00pm 28.2 27.2 22.7 72 3.7 NNE 32 35 17 19 1011.9 1011.9 0.0
23/11:30am 28.0 27.1 22.2 70 3.9 NNE 30 32 16 17 1012.4 1012.4 0.0
23/11:00am 26.8 27.0 22.0 75 3.2 NNE 24 30 13 16 1012.7 1012.7 0.0
23/10:30am 26.3 27.1 21.7 76 3.1 N 20 26 11 14 1012.9 1012.9 0.0
23/10:00am 25.7 26.0 21.6 78 2.7 N 22 28 12 15 1013.0 1013.0 0.0
23/09:30am 25.5 26.5 21.8 80 2.5 N 19 24 10 13 1013.3 1013.3 0.0
23/09:00am 25.3 26.8 22.0 82 2.2 N 17 22 9 12 1013.3 1013.3 0.0
23/08:30am 25.2 26.9 22.3 84 1.9 N 17 20 9 11 1013.6 1013.6 0.0
23/08:00am 24.5 25.9 21.8 85 1.8 N 17 19 9 10 1013.3 1013.3 0.0
23/07:30am 24.7 26.3 22.2 86 1.7 N 17 20 9 11 1013.3 1013.3 0.0
23/07:00am 24.7 26.5 22.6 88 1.4 N 17 19 9 10 1013.1 1013.1 0.0
23/06:30am 24.0 25.8 21.9 88 1.4 N 15 19 8 10 1012.8 1012.8 0.0
23/06:00am 23.6 25.6 21.5 88 1.4 N 13 15 7 8 1012.4 1012.4 0.0
23/05:30am 23.5 25.8 21.4 88 1.4 N 11 13 6 7 1012.1 1012.1 0.0
23/05:00am 23.7 26.1 21.6 88 1.4 N 11 13 6 7 1011.8 1011.8 0.0
23/04:30am 23.7 25.7 21.6 88 1.4 N 13 17 7 9 1011.6 1011.6 0.0
23/04:00am 23.7 25.4 21.6 88 1.4 N 15 19 8 10 1011.2 1011.2 0.0
23/03:30am 23.8 25.1 21.7 88 1.4 N 17 19 9 10 1011.1 1011.1 0.0
23/03:00am 23.9 25.3 21.8 88 1.4 N 17 22 9 12 1010.9 1010.9 0.0
23/02:30am 24.0 25.1 21.9 88 1.4 N 19 24 10 13 1011.0 1011.0 0.0
23/02:00am 24.2 25.4 22.1 88 1.4 N 19 22 10 12 1011.1 1011.1 0.0
23/01:30am 24.2 25.5 22.3 89 1.3 N 19 24 10 13 1011.4 1011.4 0.0
23/01:00am 24.4 24.9 22.7 90 1.1 N 24 28 13 15 1011.5 1011.5 0.0
23/12:30am 24.0 25.0 22.1 89 1.3 N 20 26 11 14 1011.7 1011.7 0.0
23/12:00am 24.0 25.4 21.9 88 1.4 N 17 20 9 11 1012.1 1012.1 0.0
 
Date/Time
EST
Temp
°C
App
Temp
°C
Dew
Point
°C
Rel
Hum
%
Delta-T
°C
Wind Press
QNH
hPa
Press
MSL
hPa
Rain since
9am
mm
Dir  Spd
km/h
Gust
km/h
Spd
kts
Gust
kts
22/11:30pm 23.8 25.1 21.7 88 1.4 N 17 20 9 11 1012.6 1012.6 0.0
22/11:00pm 24.0 24.9 21.9 88 1.4 N 20 24 11 13 1012.7 1012.7 0.0
22/10:30pm 24.2 25.6 21.9 87 1.5 N 17 19 9 10 1013.0 1013.0 0.0
22/10:00pm 24.4 25.8 21.9 86 1.7 N 17 24 9 13 1012.9 1012.9 0.0
22/09:30pm 24.7 26.0 22.4 87 1.5 N 19 26 10 14 1012.6 1012.6 0.0
22/09:00pm 24.7 25.0 22.2 86 1.7 N 24 30 13 16 1012.2 1012.2 0.0
22/08:30pm 25.1 25.6 22.6 86 1.7 N 24 32 13 17 1012.3 1012.3 0.0
22/08:00pm 24.9 26.3 22.6 87 1.5 N 19 24 10 13 1012.0 1012.0 0.0
22/07:30pm 25.3 24.8 22.8 86 1.7 N 30 33 16 18 1010.5 1010.5 0.0
22/07:00pm 25.6 26.4 23.1 86 1.7 N 24 30 13 16 1011.0 1011.0 0.0
22/06:30pm 25.6 26.9 23.3 87 1.6 N 22 28 12 15 1010.6 1010.6 0.0
22/06:00pm 25.2 25.3 22.5 85 1.8 NNE 26 30 14 16 1009.7 1009.7 0.0
22/05:30pm 25.9 25.4 22.8 83 2.1 NNE 30 33 16 18 1009.2 1009.2 0.0
22/05:00pm 26.5 26.2 22.6 79 2.6 NNE 28 32 15 17 1009.1 1009.1 0.0
22/04:30pm 27.1 26.5 22.7 77 3.0 NNE 30 32 16 17 1008.9 1008.9 0.0
22/04:00pm 28.0 27.4 23.4 76 3.2 NNE 32 33 17 18 1008.8 1008.8 0.0
22/03:30pm 28.0 27.1 22.9 74 3.5 NNE 32 35 17 19 1008.7 1008.7 0.0
22/03:00pm 28.7 28.3 23.1 71 3.8 NNE 30 35 16 19 1009.2 1009.2 0.0
22/02:30pm 28.4 29.1 22.9 72 3.7 NNE 24 30 13 16 1009.9 1009.9 0.0
22/02:00pm 27.8 29.1 22.7 74 3.5 N 20 26 11 14 1010.3 1010.3 0.0
22/01:30pm 27.7 27.7 22.4 73 3.6 N 26 30 14 16 1010.5 1010.5 0.0
22/01:00pm 29.3 29.3 23.0 69 4.3 NNE 28 32 15 17 1010.4 1010.4 0.0
22/12:30pm 29.1 28.8 22.6 68 4.4 NNE 28 32 15 17 1010.8 1010.8 0.0
22/12:00pm 28.8 28.4 22.3 68 4.4 NNE 28 30 15 16 1011.2 1011.2 0.0
22/11:30am 28.6 28.7 21.9 67 4.5 NE 24 28 13 15 1011.5 1011.5 0.0
22/11:00am 29.3 30.7 22.8 68 4.4 NNE 20 22 11 12 1011.7 1011.7 0.0
22/10:30am 27.7 28.8 22.0 71 3.8 NE 19 19 10 10 1012.1 1012.1 0.0
22/10:00am 27.9 30.3 22.2 71 3.8 NNE 13 19 7 10 1012.4 1012.4 0.0
22/09:30am 26.4 27.4 21.8 76 3.1 NE 19 20 10 11 1012.3 1012.3 0.0
22/09:00am 25.3 26.3 20.3 74 3.3 NE 15 17 8 9 1012.4 1012.4 0.2
22/08:30am 25.9 28.0 20.9 74 3.3 NNE 11 11 6 6 1012.2 1012.2 0.2
22/08:00am 25.8 27.7 20.6 73 3.4 NNE 11 13 6 7 1012.1 1012.1 0.2
22/07:30am 25.7 27.8 20.9 75 3.2 N 11 13 6 7 1012.1 1012.1 0.2
22/07:00am 25.0 27.3 20.7 77 2.8 N 9 11 5 6 1011.8 1011.8 0.2
22/06:30am 24.4 26.7 20.7 80 2.4 NNW 9 13 5 7 1011.4 1011.4 0.2
22/06:00am 23.5 24.7 20.0 81 2.3 NW 13 15 7 8 1010.8 1010.8 0.2
22/05:30am 23.7 25.0 20.2 81 2.3 NNW 13 17 7 9 1010.1 1010.1 0.2
22/05:00am 23.9 25.1 20.6 82 2.2 NNW 15 20 8 11 1009.6 1009.6 0.2
22/04:30am 23.2 24.7 20.5 85 1.8 N 13 17 7 9 1009.4 1009.4 0.2
22/04:00am 23.8 25.4 21.5 87 1.5 N 15 19 8 10 1008.9 1008.9 0.2
22/03:30am 23.1 25.2 21.0 88 1.4 N 11 15 6 8 1008.8 1008.8 0.2
22/03:00am 23.2 25.1 21.3 89 1.2 N 13 13 7 7 1008.6 1008.6 0.2
22/02:30am 22.8 26.7 20.3 86 1.6 CALM 0 7 0 4 1008.4 1008.4 0.2
22/02:00am 23.6 26.4 21.5 88 1.4 N 9 11 5 6 1008.8 1008.8 0.2
22/01:30am 22.3 25.9 19.7 85 1.7 CALM 0 6 0 3 1008.9 1008.9 0.2
22/01:00am 22.6 26.3 19.9 85 1.7 CALM 0 6 0 3 1009.2 1009.2 0.2
22/12:30am 22.9 26.6 19.9 83 1.9 CALM 0 6 0 3 1009.5 1009.5 0.2
22/12:00am 23.9 27.8 21.2 85 1.8 WNW 2 7 1 4 1009.9 1009.9 0.2
 
Date/Time
EST
Temp
°C
App
Temp
°C
Dew
Point
°C
Rel
Hum
%
Delta-T
°C
Wind Press
QNH
hPa
Press
MSL
hPa
Rain since
9am
mm
Dir  Spd
km/h
Gust
km/h
Spd
kts
Gust
kts
21/11:30pm 24.3 27.0 22.2 88 1.4 N 11 13 6 7 1010.1 1010.1 0.2
21/11:00pm 24.1 26.6 21.8 87 1.5 N 11 13 6 7 1010.2 1010.2 0.2
21/10:30pm 24.3 27.6 21.8 86 1.7 NNW 7 11 4 6 1010.2 1010.2 0.2
21/10:00pm 23.4 26.0 20.5 84 1.9 NNE 7 11 4 6 1010.3 1010.3 0.2
21/09:30pm 23.2 27.0 20.2 83 1.9 CALM 0 7 0 4 1009.9 1009.9 0.2
21/09:00pm 23.7 26.2 20.2 81 2.3 NW 7 9 4 5 1009.6 1009.6 0.2
21/08:30pm 24.7 26.7 20.8 79 2.6 N 11 17 6 9 1009.0 1009.0 0.2
21/08:00pm 25.8 26.7 21.9 79 2.6 N 20 28 11 15 1008.3 1008.3 0.2
21/07:30pm 26.6 26.7 20.4 69 4.1 NNW 20 28 11 15 1008.6 1008.6 0.2
21/07:00pm 25.2 23.8 18.9 68 4.0 N 24 28 13 15 1009.1 1009.1 0.2
21/06:30pm 25.1 25.0 17.8 64 4.6 W 15 24 8 13 1008.7 1008.7 0.2
21/06:00pm 24.6 23.6 18.8 70 3.7 W 22 32 12 17 1007.5 1007.5 0.2
21/05:30pm 25.2 23.4 19.6 71 3.6 N 28 41 15 22 1006.0 1006.0 0.2
21/05:00pm 28.0 28.3 21.5 67 4.3 NNW 22 37 12 20 1007.2 1007.2 0.0
21/04:30pm 25.3 23.9 22.0 82 2.2 N 32 35 17 19 1006.9 1006.9 0.0
21/04:00pm 26.4 25.2 21.6 75 3.2 N 30 35 16 19 1005.8 1005.8 0.0
21/03:30pm 27.4 26.8 22.6 75 3.2 N 30 35 16 19 1006.1 1006.1 0.0
21/03:00pm 27.5 27.1 22.4 73 3.5 N 28 32 15 17 1006.4 1006.4 0.0
21/02:30pm 27.5 27.3 22.7 75 3.3 N 28 32 15 17 1006.8 1006.8 0.0
21/02:00pm 27.5 26.9 22.0 72 3.7 N 28 32 15 17 1007.2 1007.2 0.0
21/01:30pm 28.2 27.7 22.9 73 3.6 NNE 30 35 16 19 1007.4 1007.4 0.0
21/01:00pm 28.6 27.5 22.8 71 4.0 NNE 33 39 18 21 1007.8 1007.8 0.0
21/12:30pm 28.9 28.0 22.9 70 4.1 NNE 32 37 17 20 1008.1 1008.1 0.0
21/12:00pm 27.8 28.6 22.5 73 3.6 N 22 30 12 16 1008.6 1008.6 0.0
21/11:30am 28.4 27.2 22.2 69 4.2 NNE 32 35 17 19 1008.7 1008.7 0.0
21/11:00am 28.7 28.5 22.0 67 4.5 NNE 26 30 14 16 1009.1 1009.1 0.0
21/10:30am 28.8 28.6 21.3 64 5.0 NNE 24 28 13 15 1009.3 1009.3 0.0
21/10:00am 30.5 29.2 18.2 47 7.9 NNW 22 32 12 17 1009.4 1009.4 0.0
21/09:30am 29.5 27.9 18.3 51 7.2 NNW 24 32 13 17 1009.6 1009.6 0.0
21/09:00am 28.9 29.5 21.1 62 5.2 N 19 26 10 14 1009.6 1009.6 1.2
21/08:30am 27.5 29.5 22.2 73 3.6 NNW 15 24 8 13 1009.3 1009.3 1.2
21/08:00am 27.1 29.4 22.7 77 3.0 N 15 22 8 12 1009.5 1009.5 1.2
21/07:30am 26.7 29.2 22.5 78 2.8 N 13 19 7 10 1009.4 1009.4 1.2
21/07:00am 25.8 28.5 22.9 84 2.0 NNW 13 19 7 10 1009.5 1009.5 1.2
21/06:30am 25.6 28.8 23.1 86 1.7 WNW 11 15 6 8 1009.3 1009.3 1.2
21/06:00am 25.4 28.4 22.7 85 1.8 NNW 11 15 6 8 1008.7 1008.7 1.2
21/05:30am 25.5 28.2 22.8 85 1.8 NNW 13 19 7 10 1008.4 1008.4 1.2
21/05:00am 25.6 28.3 22.9 85 1.8 NNW 13 17 7 9 1008.5 1008.5 1.2
21/04:30am 25.8 28.2 22.9 84 2.0 NNW 15 20 8 11 1008.2 1008.2 1.2
21/04:00am 26.0 29.0 23.3 85 1.8 NNW 13 17 7 9 1008.0 1008.0 1.2
21/03:30am 26.1 29.1 23.4 85 1.8 N 13 17 7 9 1007.6 1007.6 1.2
21/03:00am 26.2 28.4 23.3 84 2.0 NNW 17 26 9 14 1007.6 1007.6 1.2
21/02:30am 25.8 28.6 23.7 88 1.4 NNW 15 26 8 14 1007.6 1007.6 1.2
21/02:00am 24.3 26.6 22.0 87 1.5 N 13 15 7 8 1007.8 1007.8 1.2
21/01:30am 23.6 26.1 21.1 86 1.6 N 9 13 5 7 1008.1 1008.1 1.2
21/01:00am 23.3 27.1 20.1 82 2.1 CALM 0 0 0 0 1008.1 1008.1 1.2
21/12:30am 24.5 27.4 21.0 81 2.3 NW 7 9 4 5 1008.3 1008.3 1.2
21/12:00am 25.2 28.2 21.9 82 2.2 NW 9 13 5 7 1008.7 1008.7 1.2
 
Date/Time
EST
Temp
°C
App
Temp
°C
Dew
Point
°C
Rel
Hum
%
Delta-T
°C
Wind Press
QNH
hPa
Press
MSL
hPa
Rain since
9am
mm
Dir  Spd
km/h
Gust
km/h
Spd
kts
Gust
kts
20/11:30pm 25.1 27.7 22.0 83 2.1 NNW 11 13 6 7 1009.1 1009.1 1.2
20/11:00pm 24.5 27.6 21.4 83 2.0 NW 7 11 4 6 1009.3 1009.3 1.2
20/10:30pm 24.5 26.5 20.8 80 2.4 WNW 11 13 6 7 1009.3 1009.3 1.2
20/10:00pm 24.4 26.4 20.7 80 2.4 NW 11 13 6 7 1009.4 1009.4 1.2
20/09:30pm 24.5 26.0 20.6 79 2.5 N 13 17 7 9 1009.3 1009.3 1.2
20/09:00pm 24.8 26.7 20.5 77 2.8 NW 11 15 6 8 1009.3 1009.3 1.2
20/08:30pm 24.3 25.5 20.0 77 2.8 NW 13 17 7 9 1008.6 1008.6 1.2
20/08:00pm 23.6 25.5 19.7 79 2.5 N 9 15 5 8 1008.4 1008.4 1.2
20/07:30pm 24.1 26.1 20.0 78 2.6 NW 9 15 5 8 1007.7 1007.7 1.2
20/07:00pm 23.9 25.4 19.8 78 2.6 N 11 17 6 9 1007.4 1007.4 1.2
20/06:30pm 23.7 23.8 20.4 82 2.1 N 20 28 11 15 1007.4 1007.4 1.2
20/06:00pm 24.2 24.3 21.9 87 1.5 N 24 30 13 16 1006.7 1006.7 1.2
20/05:30pm 24.5 26.7 21.8 85 1.8 N 13 22 7 12 1006.3 1006.3 1.2
20/05:00pm 24.3 24.9 21.0 82 2.2 NE 19 22 10 12 1006.3 1006.3 1.2
20/04:30pm 24.7 22.8 20.2 76 2.9 NW 30 43 16 23 1006.8 1006.8 0.6
20/04:00pm 24.9 24.7 22.0 84 1.9 N 26 30 14 16 1005.7 1005.7 0.0
20/03:30pm 25.4 25.0 22.3 83 2.1 N 28 33 15 18 1004.6 1004.6 0.0
20/03:00pm 25.8 24.5 22.1 80 2.5 N 32 37 17 20 1005.1 1005.1 0.0
20/02:30pm 28.2 26.9 23.1 74 3.5 NNE 35 39 19 21 1005.2 1005.2 0.0
20/02:00pm 27.7 26.8 22.9 75 3.3 N 32 37 17 20 1005.5 1005.5 0.0
20/01:30pm 28.7 27.9 23.1 71 3.8 NNE 32 37 17 20 1006.0 1006.0 0.0
20/01:00pm 28.3 27.7 23.4 75 3.4 NNE 32 37 17 20 1006.4 1006.4 0.0

Latest Capital City Observations: Canberra | Sydney | Melbourne | Brisbane | Adelaide | Perth | Hobart | Darwin

Other formats

Comma delimited format used in spreadsheet applications
http://www.bom.gov.au/fwo/IDQ60901/IDQ60901.94580.axf

JavaScript Object Notation format (JSON) in row-major order
http://www.bom.gov.au/fwo/IDQ60901/IDQ60901.94580.json

Data quality

Most of these data are generated automatically and are frequently updated. Quality checks on data are not normally performed. It is possible for incorrect values to appear. Refer to information at About Latest Weather Observations and please check the disclaimer before using these data.